Time;durP1;ratioP1;P1;durP2;ratioP2;P2;SDS_P1;SDS_P2;PMS_P1;PMS_P2;Temp;Humidity;BMP_temperature;BMP_pressure;BME280_temperature;BME280_humidity;BME280_pressure;Samples;Min_cycle;Max_cycle;Signal;HPM_P1;HPM_P2
2021/01/24 00:00:26;;;;;;;2.13;1.17;;;2.70;89.10;;;;;;6172039;23;20004;-90
2021/01/24 00:02:52;;;;;;;3.73;1.13;;;2.70;89.30;;;;;;6172398;23;20004;-92
2021/01/24 00:05:19;;;;;;;0.40;0.30;;;2.70;89.30;;;;;;6197236;23;20004;-92
2021/01/24 00:07:45;;;;;;;6.63;1.53;;;2.70;89.30;;;;;;6224584;23;20470;-91
2021/01/24 00:10:12;;;;;;;1.97;0.63;;;2.70;89.30;;;;;;6199206;23;19996;-91
2021/01/24 00:12:39;;;;;;;2.00;1.10;;;2.60;89.10;;;;;;6198801;23;19996;-92
2021/01/24 00:15:06;;;;;;;1.60;0.70;;;2.60;89.10;;;;;;6222802;23;20356;-91
2021/01/24 00:17:33;;;;;;;1.73;1.10;;;2.60;89.10;;;;;;6197409;23;20260;-90
2021/01/24 00:20:00;;;;;;;3.07;1.30;;;2.60;89.10;;;;;;6199435;23;20007;-90
2021/01/24 00:22:27;;;;;;;1.47;0.53;;;2.60;89.00;;;;;;6224295;23;20004;-90
2021/01/24 00:24:57;;;;;;;1.13;0.63;;;2.60;89.10;;;;;;6222573;23;20004;-94
2021/01/24 00:27:23;;;;;;;0.60;0.40;;;2.60;89.20;;;;;;6223279;23;20000;-91
2021/01/24 00:29:51;;;;;;;2.23;0.77;;;2.60;89.20;;;;;;6199910;23;20008;-90
2021/01/24 00:32:18;;;;;;;1.13;0.50;;;2.50;89.20;;;;;;6203754;23;20016;-91
2021/01/24 00:34:44;;;;;;;3.77;0.73;;;2.60;89.20;;;;;;6203384;23;20011;-92
2021/01/24 00:37:12;;;;;;;3.20;1.13;;;2.50;89.20;;;;;;6203447;23;20004;-93
2021/01/24 00:39:39;;;;;;;2.33;1.50;;;2.50;89.30;;;;;;6204730;23;20000;-93
2021/01/24 00:42:05;;;;;;;5.73;1.37;;;2.40;89.30;;;;;;6204393;23;20000;-91
2021/01/24 00:44:32;;;;;;;3.53;0.97;;;2.40;89.30;;;;;;6231116;23;20000;-91
2021/01/24 00:46:58;;;;;;;2.50;1.03;;;2.40;89.30;;;;;;6256504;23;20019;-89
2021/01/24 00:49:26;;;;;;;2.67;1.23;;;2.40;89.30;;;;;;6229067;23;20054;-92
2021/01/24 00:51:52;;;;;;;7.17;1.47;;;2.40;89.30;;;;;;6204468;23;20289;-91
2021/01/24 00:54:19;;;;;;;0.97;0.83;;;2.40;89.30;;;;;;6204636;23;20000;-92
2021/01/24 00:56:46;;;;;;;0.93;0.70;;;2.30;89.20;;;;;;6229354;23;19996;-92
2021/01/24 00:59:12;;;;;;;2.27;1.43;;;2.30;89.20;;;;;;6229397;23;20002;-92
2021/01/24 01:01:39;;;;;;;5.33;1.53;;;2.30;89.20;;;;;;6228999;22;20005;-91
2021/01/24 01:04:05;;;;;;;2.70;1.47;;;2.40;89.30;;;;;;6205094;23;20005;-91
2021/01/24 01:06:32;;;;;;;5.00;0.77;;;2.30;89.20;;;;;;6202950;23;20271;-92
2021/01/24 01:08:58;;;;;;;3.10;1.00;;;2.30;89.30;;;;;;6255471;23;20002;-91
2021/01/24 01:11:25;;;;;;;3.30;1.03;;;2.30;89.30;;;;;;6227737;23;20007;-91
2021/01/24 01:13:51;;;;;;;3.13;1.23;;;2.30;89.30;;;;;;6224746;23;19996;-91
2021/01/24 01:16:17;;;;;;;0.50;0.50;;;2.30;90.00;;;;;;6224515;22;20012;-90
2021/01/24 01:18:45;;;;;;;4.43;0.80;;;2.30;89.20;;;;;;6222576;23;20019;-90
2021/01/24 01:21:11;;;;;;;1.60;0.93;;;2.30;89.10;;;;;;6196800;23;20003;-91
2021/01/24 01:23:38;;;;;;;1.57;0.70;;;2.40;89.00;;;;;;6195149;23;20233;-92
2021/01/24 01:26:04;;;;;;;3.13;0.90;;;2.40;88.90;;;;;;6195396;23;20000;-92
2021/01/24 01:28:31;;;;;;;6.23;1.70;;;2.40;88.80;;;;;;6195689;23;20000;-91
2021/01/24 01:30:57;;;;;;;2.70;1.27;;;2.40;88.80;;;;;;6169727;23;20008;-92
2021/01/24 01:33:23;;;;;;;3.43;1.20;;;2.40;88.80;;;;;;6222160;23;20264;-92
2021/01/24 01:35:50;;;;;;;4.23;1.07;;;2.40;88.80;;;;;;6222143;23;20051;-91
2021/01/24 01:38:16;;;;;;;0.70;0.70;;;2.30;88.80;;;;;;6220977;23;19996;-90
2021/01/24 01:40:44;;;;;;;1.90;0.73;;;2.30;88.80;;;;;;6196009;23;20004;-92
2021/01/24 01:43:10;;;;;;;1.13;0.60;;;2.30;88.80;;;;;;6195905;23;20003;-90
2021/01/24 01:45:36;;;;;;;0.93;0.57;;;2.40;88.80;;;;;;6195206;23;20004;-90
2021/01/24 01:48:03;;;;;;;1.97;0.80;;;2.30;88.70;;;;;;6195841;23;20327;-91
2021/01/24 01:50:29;;;;;;;0.70;0.53;;;2.40;88.70;;;;;;6220195;23;20376;-91
2021/01/24 01:52:59;;;;;;;1.87;0.87;;;2.40;88.60;;;;;;6220825;23;20275;-92
2021/01/24 01:55:26;;;;;;;0.40;0.33;;;2.40;88.50;;;;;;6194568;23;19996;-92
2021/01/24 01:57:54;;;;;;;2.93;0.97;;;2.40;88.50;;;;;;6222294;23;20015;-91
2021/01/24 02:00:20;;;;;;;0.53;0.27;;;2.40;88.50;;;;;;6246885;23;20000;-91
2021/01/24 02:02:57;;;;;;;2.43;0.67;;;2.40;88.50;;;;;;6219648;23;20001;-91
2021/01/24 02:05:41;;;;;;;0.97;0.53;;;2.40;88.60;;;;;;6222042;23;20019;-90
2021/01/24 02:08:18;;;;;;;2.73;1.20;;;2.40;88.70;;;;;;6246550;23;19996;-93
2021/01/24 02:11:22;;;;;;;0.60;0.47;;;2.30;88.60;;;;;;6224063;23;19996;-91
2021/01/24 02:14:12;;;;;;;1.83;1.17;;;2.30;88.60;;;;;;6246949;23;19996;-92
2021/01/24 02:16:39;;;;;;;1.10;0.93;;;2.30;88.60;;;;;;6245035;23;20027;-91
2021/01/24 02:19:06;;;;;;;3.17;0.93;;;2.30;88.70;;;;;;6195298;23;20398;-91
2021/01/24 02:21:34;;;;;;;4.60;1.20;;;2.30;88.70;;;;;;6248418;23;19992;-91
2021/01/24 02:24:04;;;;;;;2.57;1.50;;;2.30;88.70;;;;;;6170295;23;20259;-91
2021/01/24 02:26:59;;;;;;;1.35;0.93;;;2.20;88.70;;;;;;6170718;23;20000;-89
2021/01/24 02:29:37;;;;;;;1.03;0.47;;;2.20;88.80;;;;;;6219732;23;20291;-91
2021/01/24 02:32:03;;;;;;;0.30;0.20;;;2.20;88.70;;;;;;6220847;22;20008;-91
2021/01/24 02:34:31;;;;;;;0.90;0.73;;;2.20;88.80;;;;;;6194726;23;20000;-91
2021/01/24 02:36:59;;;;;;;0.70;0.40;;;2.10;88.80;;;;;;6196157;23;20364;-91
2021/01/24 02:39:25;;;;;;;2.47;1.13;;;2.10;89.00;;;;;;6169653;23;20000;-91
2021/01/24 02:41:51;;;;;;;0.27;0.17;;;2.00;89.00;;;;;;6194889;23;20004;-91
2021/01/24 02:44:18;;;;;;;2.00;0.47;;;2.00;89.20;;;;;;6219010;23;20007;-91
2021/01/24 02:46:44;;;;;;;3.07;1.00;;;2.00;89.20;;;;;;6195922;23;20008;-92
2021/01/24 02:49:12;;;;;;;1.90;0.80;;;2.00;89.20;;;;;;6195940;23;20386;-90
2021/01/24 02:51:39;;;;;;;1.80;0.77;;;2.00;89.20;;;;;;6221457;23;20012;-90
2021/01/24 02:54:05;;;;;;;5.67;1.50;;;2.00;89.20;;;;;;6220219;23;20004;-90
2021/01/24 02:56:32;;;;;;;3.00;1.23;;;2.00;89.20;;;;;;6169666;23;20385;-91
2021/01/24 02:58:58;;;;;;;1.27;0.67;;;1.90;89.10;;;;;;6196811;23;20001;-91
2021/01/24 03:05:03;;;;;;;1.70;0.87;;;2.00;89.20;;;;;;6222213;23;20011;-91
2021/01/24 03:07:29;;;;;;;1.13;0.50;;;2.00;89.00;;;;;;6219114;23;20007;-91
2021/01/24 03:09:56;;;;;;;1.40;0.90;;;1.90;89.10;;;;;;6170644;23;20004;-90
2021/01/24 03:12:22;;;;;;;0.80;0.77;;;1.90;89.20;;;;;;6196224;23;20011;-90
2021/01/24 03:14:49;;;;;;;0.67;0.47;;;1.90;89.20;;;;;;6196782;23;20051;-91
2021/01/24 03:17:15;;;;;;;3.50;1.00;;;1.80;89.10;;;;;;6220338;22;20035;-90
2021/01/24 03:19:42;;;;;;;0.80;0.60;;;1.80;89.30;;;;;;6195895;23;20011;-90
2021/01/24 03:22:08;;;;;;;3.70;0.97;;;1.80;89.40;;;;;;6197228;23;19992;-91
2021/01/24 03:24:34;;;;;;;1.10;0.83;;;1.80;89.40;;;;;;6170543;23;20004;-91
2021/01/24 03:27:01;;;;;;;3.30;1.43;;;1.80;89.30;;;;;;6195822;23;20380;-91
2021/01/24 03:29:27;;;;;;;1.83;0.80;;;1.80;89.20;;;;;;6196194;23;19996;-89
2021/01/24 03:31:53;;;;;;;0.70;0.60;;;1.80;90.00;;;;;;6247059;23;20008;-89
2021/01/24 03:34:21;;;;;;;0.40;0.33;;;1.80;89.30;;;;;;6221031;23;20260;-91
2021/01/24 03:36:49;;;;;;;0.47;0.33;;;1.80;89.10;;;;;;6195985;23;20000;-92
2021/01/24 03:39:15;;;;;;;0.87;0.53;;;1.80;89.00;;;;;;6171214;23;20000;-90
2021/01/24 03:41:42;;;;;;;1.80;0.87;;;1.80;88.90;;;;;;6223189;23;20000;-90
2021/01/24 03:44:08;;;;;;;0.70;0.37;;;1.80;88.90;;;;;;6198197;23;20367;-91
2021/01/24 03:46:35;;;;;;;3.87;0.90;;;1.80;89.00;;;;;;6170433;23;20020;-90
2021/01/24 03:49:02;;;;;;;2.80;1.20;;;1.70;89.80;;;;;;6196011;23;20008;-91
2021/01/24 03:51:28;;;;;;;0.53;0.33;;;1.80;89.10;;;;;;6221462;23;20008;-91
2021/01/24 03:53:55;;;;;;;0.63;0.50;;;1.80;89.10;;;;;;6196483;23;20415;-91
2021/01/24 03:56:22;;;;;;;1.83;1.13;;;1.80;89.10;;;;;;6196320;23;20000;-91
2021/01/24 03:58:48;;;;;;;2.03;0.67;;;1.80;88.90;;;;;;6197021;23;19993;-92
2021/01/24 04:01:15;;;;;;;2.80;1.30;;;1.80;89.00;;;;;;6196228;23;20016;-91
2021/01/24 04:03:44;;;;;;;1.77;0.97;;;1.70;89.00;;;;;;6221094;23;20004;-90
2021/01/24 04:06:11;;;;;;;2.73;1.00;;;1.70;89.00;;;;;;6221476;23;20008;-91
2021/01/24 04:08:37;;;;;;;0.60;0.17;;;1.70;89.10;;;;;;6171409;23;20023;-90
2021/01/24 04:11:03;;;;;;;1.60;0.87;;;1.70;89.20;;;;;;6170975;23;20008;-91
2021/01/24 04:13:30;;;;;;;2.27;0.67;;;1.70;89.30;;;;;;6195911;23;20011;-92
2021/01/24 04:15:56;;;;;;;2.50;1.30;;;1.60;89.30;;;;;;6170188;23;20013;-93
2021/01/24 04:18:23;;;;;;;1.80;0.80;;;1.60;89.40;;;;;;6196189;23;20201;-90
2021/01/24 04:20:49;;;;;;;0.13;0.13;;;1.60;89.40;;;;;;6221515;23;20410;-90
2021/01/24 04:23:15;;;;;;;2.27;0.57;;;1.70;89.30;;;;;;6197892;23;20269;-90
2021/01/24 04:25:42;;;;;;;0.67;0.47;;;1.70;89.20;;;;;;6197916;23;20263;-91
2021/01/24 04:28:09;;;;;;;1.23;0.67;;;1.70;89.10;;;;;;6196110;23;20004;-89
2021/01/24 04:30:35;;;;;;;0.37;0.30;;;1.70;89.00;;;;;;6195878;23;20013;-91
2021/01/24 04:33:02;;;;;;;2.80;1.27;;;1.70;89.00;;;;;;6197099;23;20364;-89
2021/01/24 04:35:28;;;;;;;4.17;1.53;;;1.70;88.90;;;;;;6247938;23;20240;-92
2021/01/24 04:37:55;;;;;;;1.70;0.70;;;1.70;88.90;;;;;;6219652;23;19996;-91
2021/01/24 04:40:21;;;;;;;1.13;0.83;;;1.70;88.80;;;;;;6197156;23;19997;-91
2021/01/24 04:42:47;;;;;;;20.93;0.97;;;1.70;88.90;;;;;;6197548;23;20000;-92
2021/01/24 04:45:14;;;;;;;2.93;1.63;;;1.70;89.00;;;;;;6169605;23;20011;-90
2021/01/24 04:47:41;;;;;;;3.70;1.80;;;1.70;89.00;;;;;;6171466;23;20252;-90
2021/01/24 04:50:07;;;;;;;1.47;0.90;;;1.70;89.00;;;;;;6195663;23;20288;-89
2021/01/24 04:52:34;;;;;;;1.90;0.57;;;1.70;89.00;;;;;;6196399;23;20011;-92
2021/01/24 04:55:01;;;;;;;5.27;1.23;;;1.70;89.00;;;;;;6198017;23;20007;-91
2021/01/24 04:57:28;;;;;;;0.67;0.53;;;1.70;88.90;;;;;;6171483;23;20000;-90
2021/01/24 04:59:54;;;;;;;1.17;0.50;;;1.70;88.90;;;;;;6197852;23;19996;-92
2021/01/24 05:02:20;;;;;;;1.17;0.57;;;1.70;88.80;;;;;;6219952;22;20012;-90
2021/01/24 05:04:47;;;;;;;0.67;0.50;;;1.70;88.80;;;;;;6195801;23;20000;-93
2021/01/24 05:07:13;;;;;;;3.30;0.77;;;1.70;88.70;;;;;;6196276;23;20000;-92
2021/01/24 05:09:41;;;;;;;2.00;0.57;;;1.80;88.70;;;;;;6198481;23;20382;-92
2021/01/24 05:12:10;;;;;;;1.00;0.73;;;1.80;88.60;;;;;;6198491;23;19996;-92
2021/01/24 05:14:36;;;;;;;4.00;0.60;;;1.80;88.60;;;;;;6222322;23;20000;-92
2021/01/24 05:17:03;;;;;;;0.43;0.37;;;1.80;88.50;;;;;;6220993;22;20015;-92
2021/01/24 05:19:32;;;;;;;1.73;0.43;;;1.80;88.50;;;;;;6220862;23;20004;-91
2021/01/24 05:21:58;;;;;;;3.33;1.17;;;1.90;88.40;;;;;;6198435;23;19993;-92
2021/01/24 05:24:24;;;;;;;0.80;0.47;;;1.90;88.30;;;;;;6196149;23;20000;-91
2021/01/24 05:26:51;;;;;;;1.40;0.60;;;1.90;88.20;;;;;;6220148;23;20019;-91
2021/01/24 05:29:21;;;;;;;1.23;0.47;;;2.00;88.10;;;;;;6221485;23;20008;-93
2021/01/24 05:31:48;;;;;;;2.22;1.00;;;2.00;88.10;;;;;;6170319;23;20159;-93
2021/01/24 05:34:17;;;;;;;2.03;1.07;;;2.00;88.00;;;;;;6219594;23;20008;-93
2021/01/24 05:36:47;;;;;;;1.20;0.53;;;2.00;87.80;;;;;;6171257;23;20000;-91
2021/01/24 05:39:13;;;;;;;0.53;0.30;;;2.00;87.80;;;;;;6170557;23;20235;-93
2021/01/24 05:41:41;;;;;;;0.20;0.20;;;2.00;87.90;;;;;;6221142;23;19996;-91
2021/01/24 05:44:12;;;;;;;0.90;0.43;;;2.00;88.00;;;;;;6197584;23;19996;-91
2021/01/24 05:46:38;;;;;;;0.43;0.43;;;2.00;88.10;;;;;;6245849;23;20023;-92
2021/01/24 05:49:05;;;;;;;1.27;0.60;;;2.00;88.10;;;;;;6195804;23;20011;-92
2021/01/24 05:51:32;;;;;;;0.87;0.70;;;2.00;88.10;;;;;;6196104;23;20271;-91
2021/01/24 05:53:58;;;;;;;1.30;0.63;;;2.00;88.00;;;;;;6197880;23;20268;-92
2021/01/24 05:56:24;;;;;;;1.73;0.70;;;2.10;87.90;;;;;;6170352;23;20003;-92
2021/01/24 05:58:55;;;;;;;0.20;0.17;;;2.10;87.80;;;;;;6247282;23;19996;-92
2021/01/24 06:01:23;;;;;;;3.80;0.30;;;2.10;87.80;;;;;;6195403;23;20009;-91
2021/01/24 06:03:49;;;;;;;1.27;0.47;;;2.10;87.80;;;;;;6247117;23;20004;-91
2021/01/24 06:06:16;;;;;;;0.77;0.40;;;2.10;87.80;;;;;;6195180;23;20004;-92
2021/01/24 06:08:42;;;;;;;0.70;0.40;;;2.10;87.80;;;;;;6197254;23;20003;-93
2021/01/24 06:11:08;;;;;;;3.93;0.47;;;2.10;87.80;;;;;;6221816;23;20000;-91
2021/01/24 06:13:35;;;;;;;0.93;0.77;;;2.10;87.70;;;;;;6197019;23;20368;-90
2021/01/24 06:16:29;;;;;;;1.07;0.43;;;2.10;87.50;;;;;;6219447;22;20008;-92
2021/01/24 06:19:03;;;;;;;0.40;0.10;;;2.20;87.50;;;;;;6194583;23;20007;-94
2021/01/24 06:21:45;;;;;;;1.83;0.77;;;2.20;87.40;;;;;;6203462;23;20000;-93
2021/01/24 06:24:37;;;;;;;2.17;0.63;;;2.30;87.40;;;;;;6186600;22;19993;-94
2021/01/24 06:27:37;;;;;;;0.30;0.03;;;2.30;87.30;;;;;;6196175;22;20016;-94
2021/01/24 06:30:10;;;;;;;0.30;0.30;;;2.30;87.10;;;;;;6242221;22;20060;-93
2021/01/24 06:32:40;;;;;;;0.20;0.10;;;2.30;87.80;;;;;;6193872;22;20018;-94
2021/01/24 06:35:20;;;;;;;0.47;0.10;;;2.30;87.00;;;;;;6219638;23;20072;-93
2021/01/24 06:37:58;;;;;;;1.70;0.10;;;2.30;86.90;;;;;;6221190;22;20000;-94
2021/01/24 06:40:29;;;;;;;0.20;0.10;;;2.30;86.90;;;;;;6195963;23;20071;-92
2021/01/24 06:43:02;;;;;;;;;;;2.30;87.00;;;;;;6217684;23;20418;-93
2021/01/24 06:45:33;;;;;;;0.10;0.10;;;2.30;87.00;;;;;;6202867;23;19930;-92
2021/01/24 06:48:01;;;;;;;0.00;0.00;;;2.30;87.00;;;;;;6256360;23;20005;-95
2021/01/24 06:50:46;;;;;;;0.10;0.10;;;2.30;87.00;;;;;;6198060;23;20012;-95
2021/01/24 06:53:26;;;;;;;0.10;0.10;;;2.30;87.00;;;;;;6199392;23;20001;-93
2021/01/24 06:56:06;;;;;;;;;;;;;;;;;;;;;
2021/01/24 06:58:49;;;;;;;0.20;0.03;;;2.30;87.00;;;;;;6228947;23;20011;-92
2021/01/24 07:01:38;;;;;;;0.63;0.37;;;2.40;87.10;;;;;;6193411;23;20016;-94
2021/01/24 07:04:28;;;;;;;0.20;0.10;;;2.40;87.10;;;;;;6172026;23;20392;-95
2021/01/24 07:07:14;;;;;;;0.07;0.03;;;2.40;87.00;;;;;;6246273;23;20008;-93
2021/01/24 07:09:41;;;;;;;0.33;0.30;;;2.50;87.00;;;;;;6244409;23;20008;-94
2021/01/24 07:12:08;;;;;;;0.67;0.10;;;2.50;86.70;;;;;;6195879;23;20008;-93
2021/01/24 07:18:13;;;;;;;0.40;0.20;;;2.70;86.40;;;;;;6122970;23;20010;-95
2021/01/24 07:20:40;;;;;;;0.10;0.10;;;2.80;86.10;;;;;;6117026;23;19998;-93
2021/01/24 07:26:38;;;;;;;0.00;0.00;;;3.00;85.80;;;;;;6241334;23;20379;-94
2021/01/24 07:29:04;;;;;;;0.73;0.30;;;3.00;85.60;;;;;;6195560;23;20222;-93
2021/01/24 07:31:30;;;;;;;0.03;0.03;;;3.10;85.50;;;;;;6202942;23;20008;-93
2021/01/24 07:34:43;;;;;;;0.00;0.00;;;3.10;85.40;;;;;;6197057;23;20004;-94
2021/01/24 07:37:30;;;;;;;0.00;0.00;;;3.20;85.40;;;;;;6193502;23;20000;-94
2021/01/24 07:39:56;;;;;;;0.00;0.00;;;3.20;85.20;;;;;;6209980;23;20018;-94
2021/01/24 07:42:24;;;;;;;0.00;0.00;;;3.30;85.20;;;;;;6216867;23;20002;-95
2021/01/24 07:45:24;;;;;;;;;;;;;;;;;;;;;
2021/01/24 07:47:51;;;;;;;0.00;0.00;;;3.30;85.10;;;;;;6131784;23;20432;-92
2021/01/24 07:50:17;;;;;;;0.00;0.00;;;3.40;85.10;;;;;;6213935;23;20020;-93
2021/01/24 07:56:41;;;;;;;0.00;0.00;;;3.50;85.00;;;;;;6204849;23;20018;-95
2021/01/24 07:59:07;;;;;;;0.00;0.00;;;3.50;84.90;;;;;;6206110;23;20008;-94
2021/01/24 08:01:35;;;;;;;0.20;0.10;;;3.50;84.80;;;;;;6206554;23;20022;-92
2021/01/24 08:04:43;;;;;;;;;;;;;;;;;;;;;
2021/01/24 08:07:10;;;;;;;0.10;0.00;;;3.60;84.80;;;;;;6230402;23;19996;-93
2021/01/24 08:09:38;;;;;;;0.00;0.00;;;3.60;84.70;;;;;;6205263;23;20003;-93
2021/01/24 08:12:14;;;;;;;0.10;0.00;;;3.60;84.70;;;;;;6200351;23;20004;-94
2021/01/24 08:17:45;;;;;;;0.00;0.00;;;3.70;84.70;;;;;;6164131;23;20190;-93
2021/01/24 08:22:50;;;;;;;0.00;0.00;;;3.70;84.60;;;;;;6195568;23;20310;-93
2021/01/24 08:25:57;;;;;;;0.37;0.13;;;3.80;84.60;;;;;;6146487;23;20387;-92
2021/01/24 08:28:37;;;;;;;0.00;0.00;;;3.80;84.50;;;;;;6151325;23;20005;-93
2021/01/24 08:34:48;;;;;;;0.07;0.03;;;3.90;84.40;;;;;;6150967;23;20012;-93
2021/01/24 08:38:04;;;;;;;;;;;;;;;;;;;;;
2021/01/24 08:40:33;;;;;;;5.00;0.17;;;4.00;84.30;;;;;;6178311;23;20008;-91
2021/01/24 08:43:06;;;;;;;0.00;0.00;;;4.00;84.30;;;;;;6118810;23;20001;-93
2021/01/24 08:45:37;;;;;;;0.00;0.00;;;4.00;84.30;;;;;;6138010;23;20013;-93
2021/01/24 08:48:24;;;;;;;0.00;0.00;;;4.00;84.30;;;;;;6114362;23;20005;-92
2021/01/24 08:51:44;;;;;;;0.00;0.00;;;4.00;84.20;;;;;;6120020;23;20005;-92
2021/01/24 09:10:09;;;;;;;0.00;0.00;;;4.30;83.70;;;;;;6218910;22;20051;-93
2021/01/24 09:12:59;;;;;;;0.00;0.00;;;4.30;83.80;;;;;;6240897;23;20011;-94
2021/01/24 09:15:36;;;;;;;0.00;0.00;;;4.40;83.80;;;;;;6182550;23;20012;-93
2021/01/24 09:23:52;;;;;;;0.00;0.00;;;4.40;83.80;;;;;;6212716;23;20004;-92
2021/01/24 09:26:19;;;;;;;0.00;0.00;;;4.40;83.90;;;;;;6195818;23;19992;-91
2021/01/24 09:28:45;;;;;;;0.47;0.20;;;4.40;84.00;;;;;;6191903;23;20000;-90
2021/01/24 09:31:12;;;;;;;0.00;0.00;;;4.40;84.10;;;;;;6193421;23;20434;-90
2021/01/24 09:33:38;;;;;;;0.07;0.07;;;4.40;84.20;;;;;;6196288;23;19997;-94
2021/01/24 09:36:36;;;;;;;0.37;0.10;;;4.40;84.20;;;;;;6220161;23;20004;-92
2021/01/24 09:39:19;;;;;;;0.10;0.10;;;4.60;84.20;;;;;;6224133;23;20003;-94
2021/01/24 09:58:20;;;;;;;0.00;0.00;;;5.10;83.20;;;;;;6235675;22;20035;-93
2021/01/24 10:00:46;;;;;;;0.73;0.03;;;5.20;83.10;;;;;;6196159;23;20008;-92
2021/01/24 10:03:12;;;;;;;0.00;0.00;;;5.30;83.00;;;;;;6249866;23;20004;-93
2021/01/24 10:05:41;;;;;;;0.00;0.00;;;5.40;83.00;;;;;;6246850;23;20268;-94
2021/01/24 10:08:07;;;;;;;0.00;0.00;;;5.40;82.80;;;;;;6253832;23;20007;-94
2021/01/24 10:11:03;;;;;;;0.00;0.00;;;5.50;82.60;;;;;;6229446;23;20011;-92
2021/01/24 10:13:29;;;;;;;0.10;0.00;;;5.60;82.50;;;;;;6228544;23;20004;-93
2021/01/24 10:15:55;;;;;;;0.00;0.00;;;5.70;82.40;;;;;;6236956;22;20018;-94
2021/01/24 10:18:22;;;;;;;0.10;0.10;;;5.80;82.30;;;;;;6270681;22;20071;-93
2021/01/24 10:20:48;;;;;;;0.00;0.00;;;6.00;82.10;;;;;;6246403;22;20040;-91
2021/01/24 10:29:56;;;;;;;0.00;0.00;;;6.30;81.80;;;;;;6184244;22;20016;-94
2021/01/24 10:35:38;;;;;;;0.00;0.00;;;6.60;81.60;;;;;;6215555;23;20249;-93
2021/01/24 10:38:05;;;;;;;0.00;0.00;;;6.80;81.10;;;;;;6172761;23;20004;-93
2021/01/24 10:40:31;;;;;;;0.20;0.13;;;7.00;80.70;;;;;;6224491;23;20007;-92
2021/01/24 10:42:58;;;;;;;0.20;0.10;;;7.10;80.30;;;;;;6252623;23;20008;-94
2021/01/24 10:45:24;;;;;;;0.00;0.00;;;7.20;80.30;;;;;;6223266;22;20128;-92
2021/01/24 10:47:51;;;;;;;0.00;0.00;;;7.20;80.40;;;;;;6199578;23;20000;-92
2021/01/24 10:50:18;;;;;;;0.00;0.00;;;7.30;80.70;;;;;;6221396;23;19996;-92
2021/01/24 10:52:44;;;;;;;0.20;0.00;;;7.30;80.90;;;;;;6171517;23;20023;-93
2021/01/24 10:56:24;;;;;;;0.30;0.20;;;7.40;80.90;;;;;;6171068;23;20015;-93
2021/01/24 10:58:51;;;;;;;0.50;0.23;;;7.50;80.90;;;;;;6127694;23;19998;-93
2021/01/24 11:01:19;;;;;;;0.50;0.30;;;7.90;80.20;;;;;;6124150;23;20017;-94
2021/01/24 11:03:46;;;;;;;0.77;0.20;;;8.20;79.60;;;;;;6162177;23;20000;-94
2021/01/24 11:06:12;;;;;;;2.20;0.40;;;8.50;79.00;;;;;;6173015;23;20003;-94
2021/01/24 11:08:38;;;;;;;0.70;0.27;;;8.80;78.60;;;;;;6222272;23;20391;-94
2021/01/24 11:11:05;;;;;;;0.23;0.10;;;9.10;78.00;;;;;;6196787;23;19999;-96
2021/01/24 11:13:31;;;;;;;1.53;0.23;;;9.30;77.70;;;;;;6221247;23;20231;-96
2021/01/24 11:16:00;;;;;;;2.67;0.73;;;9.20;77.70;;;;;;6201818;23;20027;-94
2021/01/24 11:18:26;;;;;;;0.30;0.23;;;9.20;78.10;;;;;;6181535;23;19998;-93
2021/01/24 11:21:00;;;;;;;0.57;0.33;;;9.40;78.20;;;;;;6230786;23;20000;-94
2021/01/24 11:23:27;;;;;;;0.00;0.00;;;9.40;78.10;;;;;;6210283;23;20001;-94
2021/01/24 11:25:53;;;;;;;2.83;0.20;;;9.40;78.40;;;;;;6259981;23;20004;-94
2021/01/24 11:28:19;;;;;;;0.10;0.10;;;9.40;78.80;;;;;;6228969;23;19996;-92
2021/01/24 11:30:46;;;;;;;0.43;0.17;;;9.40;78.90;;;;;;6253524;22;20019;-95
2021/01/24 11:33:12;;;;;;;0.40;0.10;;;9.30;79.20;;;;;;6260238;23;20014;-94
2021/01/24 11:35:39;;;;;;;0.20;0.00;;;9.20;79.50;;;;;;6232497;23;20006;-95
2021/01/24 11:38:06;;;;;;;0.05;0.00;;;9.20;79.70;;;;;;6236568;23;20272;-91
2021/01/24 11:40:33;;;;;;;0.00;0.00;;;9.20;79.80;;;;;;6232872;23;20000;-94
2021/01/24 11:42:59;;;;;;;1.00;0.10;;;9.20;80.00;;;;;;6257969;23;19996;-95
2021/01/24 11:45:26;;;;;;;1.88;0.47;;;9.10;80.20;;;;;;6199840;22;20007;-94
2021/01/24 11:47:52;;;;;;;0.10;0.10;;;8.90;80.50;;;;;;6224779;23;20001;-94
2021/01/24 11:50:18;;;;;;;0.10;0.00;;;8.90;81.00;;;;;;6225520;23;19992;-94
2021/01/24 11:52:46;;;;;;;0.00;0.00;;;8.80;81.10;;;;;;6199314;23;20011;-94
2021/01/24 12:09:02;;;;;;;0.22;0.20;;;8.90;81.00;;;;;;6187666;22;20023;-88
2021/01/24 12:43:23;;;;;;;0.00;0.00;;;10.70;77.80;;;;;;6220100;22;20024;-89
2021/01/24 12:45:50;;;;;;;0.00;0.00;;;10.40;78.60;;;;;;6224503;23;20051;-92
2021/01/24 12:48:19;;;;;;;0.22;0.10;;;10.10;79.30;;;;;;6172834;23;20008;-93
2021/01/24 12:50:45;;;;;;;0.05;0.00;;;9.90;79.90;;;;;;6223780;23;20011;-95
2021/01/24 12:53:12;;;;;;;2.25;0.65;;;9.80;80.30;;;;;;6198386;23;19996;-94
2021/01/24 12:55:38;;;;;;;0.10;0.05;;;9.70;80.70;;;;;;6223177;23;20291;-93
2021/01/24 12:58:04;;;;;;;0.00;0.00;;;9.70;80.80;;;;;;6197148;23;19992;-93
2021/01/24 13:00:31;;;;;;;0.00;0.00;;;9.60;80.90;;;;;;6201388;23;20004;-94
2021/01/24 13:02:57;;;;;;;0.00;0.00;;;9.50;81.10;;;;;;6205084;23;19996;-94
2021/01/24 13:05:24;;;;;;;0.00;0.00;;;9.50;81.10;;;;;;6251511;23;20008;-93
2021/01/24 13:07:50;;;;;;;0.70;0.10;;;9.40;81.10;;;;;;6229054;23;20004;-94
2021/01/24 13:10:16;;;;;;;0.35;0.30;;;9.40;81.30;;;;;;6229726;23;20151;-93
2021/01/24 13:12:43;;;;;;;0.00;0.00;;;9.40;81.30;;;;;;6257185;23;20000;-95
2021/01/24 13:15:09;;;;;;;0.22;0.20;;;9.40;81.10;;;;;;6254330;22;20000;-89
2021/01/24 13:17:36;;;;;;;0.57;0.20;;;9.40;81.10;;;;;;6230500;23;20000;-92
2021/01/24 13:20:03;;;;;;;0.30;0.20;;;9.50;81.10;;;;;;6204682;23;20012;-92
2021/01/24 13:22:30;;;;;;;0.00;0.00;;;9.50;81.00;;;;;;6226740;23;20007;-93
2021/01/24 13:24:56;;;;;;;0.00;0.00;;;9.50;80.90;;;;;;6256612;23;20352;-94
2021/01/24 13:27:23;;;;;;;0.08;0.00;;;9.50;80.90;;;;;;6255732;23;20001;-93
2021/01/24 13:29:49;;;;;;;0.25;0.10;;;9.50;80.80;;;;;;6201867;23;20001;-94
2021/01/24 13:32:15;;;;;;;0.00;0.00;;;9.50;80.90;;;;;;6228131;23;20008;-94
2021/01/24 13:34:43;;;;;;;0.00;0.00;;;9.40;80.90;;;;;;6229502;23;20004;-94
2021/01/24 13:37:09;;;;;;;0.35;0.20;;;9.40;81.00;;;;;;6226997;23;20288;-91
2021/01/24 13:39:36;;;;;;;0.00;0.00;;;9.40;81.10;;;;;;6172343;23;20000;-91
2021/01/24 13:42:02;;;;;;;0.10;0.00;;;9.40;81.10;;;;;;6198056;23;19997;-94
2021/01/24 13:44:29;;;;;;;0.43;0.00;;;9.40;81.00;;;;;;6223644;23;20011;-93
2021/01/24 13:46:55;;;;;;;0.00;0.00;;;9.50;80.80;;;;;;6226319;23;20015;-91
2021/01/24 13:49:21;;;;;;;0.70;0.30;;;9.70;80.60;;;;;;6200012;23;20011;-92
2021/01/24 13:51:48;;;;;;;1.75;0.43;;;9.70;80.20;;;;;;6198067;23;20004;-90
2021/01/24 13:54:14;;;;;;;0.00;0.00;;;9.70;80.10;;;;;;6201347;23;20010;-94
2021/01/24 13:56:40;;;;;;;0.00;0.00;;;9.70;80.20;;;;;;6224493;23;20003;-93
2021/01/24 13:59:07;;;;;;;0.00;0.00;;;9.70;80.30;;;;;;6224275;23;20003;-93
2021/01/24 14:01:33;;;;;;;0.55;0.30;;;9.70;80.30;;;;;;6226685;23;20012;-92
2021/01/24 14:04:00;;;;;;;0.43;0.10;;;9.70;80.40;;;;;;6200417;23;20378;-94
2021/01/24 14:06:29;;;;;;;0.43;0.28;;;9.70;80.50;;;;;;6247198;23;20004;-94
2021/01/24 14:08:55;;;;;;;0.05;0.00;;;9.80;80.30;;;;;;6197407;23;20012;-94
2021/01/24 14:11:22;;;;;;;0.00;0.00;;;9.90;79.90;;;;;;6174490;23;20008;-93
2021/01/24 14:13:48;;;;;;;0.10;0.00;;;10.20;79.50;;;;;;6219194;23;20011;-94
2021/01/24 14:16:14;;;;;;;0.03;0.00;;;10.20;79.20;;;;;;6197509;23;20320;-94
2021/01/24 14:18:41;;;;;;;0.00;0.00;;;10.10;79.30;;;;;;6221064;23;20288;-93
2021/01/24 14:21:08;;;;;;;0.00;0.00;;;10.00;79.50;;;;;;6250857;23;20015;-94
2021/01/24 14:23:34;;;;;;;0.00;0.00;;;9.90;79.90;;;;;;6197437;23;20004;-94
2021/01/24 14:26:00;;;;;;;0.28;0.20;;;9.90;80.40;;;;;;6198456;23;19997;-94
2021/01/24 14:28:27;;;;;;;0.00;0.00;;;9.80;80.50;;;;;;6199641;23;20372;-92
2021/01/24 14:30:53;;;;;;;0.00;0.00;;;9.80;80.50;;;;;;6196935;23;20278;-92
2021/01/24 14:33:23;;;;;;;0.20;0.00;;;9.80;80.60;;;;;;6224276;23;20376;-94
2021/01/24 14:35:49;;;;;;;0.45;0.10;;;9.80;80.50;;;;;;6221853;23;19997;-94
2021/01/24 14:38:16;;;;;;;0.05;0.00;;;9.70;80.50;;;;;;6229261;23;19996;-94
2021/01/24 14:40:42;;;;;;;0.00;0.00;;;9.70;80.50;;;;;;6205173;23;19993;-94
2021/01/24 14:43:09;;;;;;;0.00;0.00;;;9.70;80.60;;;;;;6201938;23;19996;-93
2021/01/24 14:45:35;;;;;;;0.00;0.00;;;9.60;80.70;;;;;;6177195;23;20019;-92
2021/01/24 14:48:02;;;;;;;0.00;0.00;;;9.60;80.90;;;;;;6168410;23;20005;-93
2021/01/24 14:50:29;;;;;;;0.00;0.00;;;9.50;81.10;;;;;;6173065;23;20000;-95
2021/01/24 14:52:58;;;;;;;0.90;0.43;;;9.40;81.20;;;;;;6153871;23;20001;-94
2021/01/24 14:55:39;;;;;;;0.03;0.00;;;9.30;81.40;;;;;;6145167;23;20263;-94
2021/01/24 14:58:07;;;;;;;0.10;0.10;;;9.30;81.50;;;;;;6143348;23;20276;-95
2021/01/24 15:00:34;;;;;;;2.08;0.30;;;9.20;81.60;;;;;;6167747;23;20229;-92
2021/01/24 15:03:01;;;;;;;0.20;0.00;;;9.20;81.60;;;;;;6147262;23;20019;-93
2021/01/24 15:05:27;;;;;;;0.00;0.00;;;9.10;81.60;;;;;;6149200;23;20011;-93
2021/01/24 15:08:01;;;;;;;0.00;0.00;;;9.10;81.70;;;;;;6173490;23;20005;-93
2021/01/24 15:10:27;;;;;;;0.30;0.20;;;9.10;81.70;;;;;;6193298;23;20000;-94
2021/01/24 15:12:54;;;;;;;0.00;0.00;;;9.00;81.70;;;;;;6174341;23;20007;-91